KPNE/PNE METAR and TAF weather

Enter ICAO airport designator
Station Type Date Time Source
KPNE METAR 2020/04/10 17:54 UTC NOAA

KPNE 101754Z 27019G26KT 10SM BKN065 OVC080 09/M05 A2952 RMK AO2 PK WND 30036/1720 SLP996 T00941050 10111 20067 51003


Station Type Date Time Source
KPNE Decoded METAR 2020/04/10 17:54 UTC NOAA

N.E. PHILADELPHIA AIRPORT, PA, United States (KPNE) 40-05N 075-01W 28M
Apr 10, 2020 - 01:54 PM EDT / 2020.04.10 1754 UTC
Wind: from the W (270 degrees) at 22 MPH (19 KT) gusting to 30 MPH (26 KT):0
Visibility: 10 mile(s):0
Sky conditions: overcast
Temperature: 48.9 F (9.4 C)
Dew Point: 23.0 F (-5.0 C)
Relative Humidity: 35%
Pressure (altimeter): 29.52 in. Hg (999 hPa)
Pressure tendency: 0.01 inches (0.3 hPa) higher than three hours ago
ob: KPNE 101754Z 27019G26KT 10SM BKN065 OVC080 09/M05 A2952 RMK AO2 PK WND 30036/1720 SLP996 T00941050 10111 20067 51003
cycle: 18

Station Type Date Time Source
KPNE TAF 2020/04/10 18:24 UTC NOAA

TAF KPNE 101721Z 1018/1118 29022G37KT P6SM BKN060
FM102200 30015G28KT P6SM SCT060
FM110000 30011G21KT P6SM SCT100
FM110400 28010KT P6SM SKC
FM111200 29010G18KT P6SM SKC

Example: see airport list